Time;durP1;ratioP1;P1;durP2;ratioP2;P2;SDS_P1;SDS_P2;PMS_P1;PMS_P2;Temp;Humidity;BMP_temperature;BMP_pressure;BME280_temperature;BME280_humidity;BME280_pressure;Samples;Min_cycle;Max_cycle;Signal;HPM_P1;HPM_P2
2021/12/03 00:02:04;;;;;;;15.40;13.80;;;;;;;;;;5057000;28;20430;-74
2021/12/03 00:04:30;;;;;;;16.63;14.23;;;;;;;;;;5072911;28;20460;-72
2021/12/03 00:06:55;;;;;;;14.00;12.50;;;;;;;;;;5055243;28;20435;-74
2021/12/03 00:09:21;;;;;;;13.73;12.10;;;;;;;;;;5058150;28;20410;-74
2021/12/03 00:11:46;;;;;;;13.40;12.00;;;;;;;;;;5054565;28;20411;-74
2021/12/03 00:14:11;;;;;;;15.63;12.70;;;;;;;;;;5055072;28;20410;-73
2021/12/03 00:16:37;;;;;;;14.63;12.67;;;;;;;;;;5056477;28;20415;-74
2021/12/03 00:19:02;;;;;;;16.53;14.40;;;;;;;;;;5056623;28;20407;-73
2021/12/03 00:21:27;;;;;;;17.67;15.57;;;;;;;;;;5055421;28;20403;-73
2021/12/03 00:23:53;;;;;;;17.77;15.20;;;;;;;;;;5056989;28;20712;-74
2021/12/03 00:26:18;;;;;;;19.90;16.07;;;;;;;;;;5053222;28;20425;-73
2021/12/03 00:28:44;;;;;;;17.93;15.13;;;;;;;;;;5054164;28;20407;-73
2021/12/03 00:31:10;;;;;;;19.45;15.85;;;;;;;;;;5054269;28;20403;-74
2021/12/03 00:33:36;;;;;;;17.50;15.25;;;;;;;;;;5054237;28;20415;-73
2021/12/03 00:36:05;;;;;;;18.13;15.65;;;;;;;;;;5053420;28;20411;-73
2021/12/03 00:38:35;;;;;;;17.20;15.10;;;;;;;;;;5057327;28;20401;-73
2021/12/03 00:41:01;;;;;;;14.07;12.57;;;;;;;;;;5057596;28;20469;-73
2021/12/03 00:43:26;;;;;;;14.82;13.10;;;;;;;;;;5057254;28;20396;-73
2021/12/03 00:45:54;;;;;;;13.30;11.60;;;;;;;;;;5055483;28;20794;-74
2021/12/03 00:48:19;;;;;;;14.40;12.90;;;;;;;;;;5054226;28;20399;-73
2021/12/03 00:50:44;;;;;;;13.27;11.73;;;;;;;;;;5055637;28;20402;-73
2021/12/03 00:53:10;;;;;;;15.02;12.82;;;;;;;;;;5055969;28;20404;-73
2021/12/03 00:55:35;;;;;;;13.63;11.97;;;;;;;;;;5055324;28;20403;-73
2021/12/03 00:58:00;;;;;;;14.07;12.10;;;;;;;;;;5053963;28;20392;-73
2021/12/03 01:00:28;;;;;;;13.03;11.67;;;;;;;;;;5054764;28;20402;-74
2021/12/03 01:02:54;;;;;;;14.98;13.38;;;;;;;;;;5053209;28;20396;-73
2021/12/03 01:05:20;;;;;;;14.13;12.50;;;;;;;;;;5051946;28;20411;-73
2021/12/03 01:07:45;;;;;;;13.20;11.65;;;;;;;;;;5054786;28;20403;-73
2021/12/03 01:10:11;;;;;;;14.52;12.57;;;;;;;;;;5054165;28;20435;-73
2021/12/03 01:12:37;;;;;;;14.13;11.50;;;;;;;;;;5051815;28;20902;-73
2021/12/03 01:15:04;;;;;;;16.20;14.32;;;;;;;;;;5053487;28;20403;-73
2021/12/03 01:17:29;;;;;;;15.02;13.48;;;;;;;;;;5055787;28;20398;-73
2021/12/03 01:19:55;;;;;;;16.02;14.32;;;;;;;;;;5056855;28;20419;-74
2021/12/03 01:22:20;;;;;;;20.30;17.30;;;;;;;;;;5053318;28;20415;-73
2021/12/03 01:24:45;;;;;;;17.43;15.43;;;;;;;;;;5053422;28;20481;-74
2021/12/03 01:27:11;;;;;;;16.27;14.20;;;;;;;;;;5054113;28;20485;-74
2021/12/03 01:29:36;;;;;;;16.43;14.00;;;;;;;;;;5054361;28;20423;-73
2021/12/03 01:32:02;;;;;;;14.80;13.20;;;;;;;;;;5054789;28;20414;-74
2021/12/03 01:34:27;;;;;;;16.13;13.88;;;;;;;;;;5054187;28;20412;-73
2021/12/03 01:36:52;;;;;;;17.50;15.63;;;;;;;;;;5054454;28;20403;-73
2021/12/03 01:39:18;;;;;;;15.90;14.30;;;;;;;;;;5056382;28;20403;-73
2021/12/03 01:41:44;;;;;;;14.10;12.68;;;;;;;;;;5056812;28;20833;-73
2021/12/03 01:44:09;;;;;;;14.73;12.63;;;;;;;;;;5056713;28;20451;-73
2021/12/03 01:46:35;;;;;;;13.20;11.80;;;;;;;;;;5056215;28;20395;-74
2021/12/03 01:49:00;;;;;;;14.07;12.37;;;;;;;;;;5053439;28;20506;-73
2021/12/03 01:51:27;;;;;;;13.93;12.43;;;;;;;;;;5054284;28;20519;-73
2021/12/03 01:53:53;;;;;;;14.10;12.60;;;;;;;;;;5054810;28;20406;-74
2021/12/03 01:56:20;;;;;;;17.27;15.37;;;;;;;;;;5055404;28;20406;-73
2021/12/03 01:58:47;;;;;;;14.68;13.15;;;;;;;;;;5055569;28;20963;-73
2021/12/03 02:01:13;;;;;;;13.77;12.27;;;;;;;;;;5053517;28;20408;-73
2021/12/03 02:03:40;;;;;;;15.02;13.00;;;;;;;;;;5052128;28;20411;-73
2021/12/03 02:06:06;;;;;;;13.20;11.80;;;;;;;;;;5056387;28;20400;-73
2021/12/03 02:08:32;;;;;;;16.73;14.60;;;;;;;;;;5056966;28;20486;-73
2021/12/03 02:10:57;;;;;;;18.20;15.57;;;;;;;;;;5055977;28;20431;-73
2021/12/03 02:13:23;;;;;;;14.93;13.33;;;;;;;;;;5054572;28;20530;-73
2021/12/03 02:15:49;;;;;;;12.93;11.63;;;;;;;;;;5055401;28;20497;-73
2021/12/03 02:18:14;;;;;;;13.07;11.68;;;;;;;;;;5060054;28;20530;-74
2021/12/03 02:20:50;;;;;;;15.60;13.38;;;;;;;;;;5058967;28;20412;-73
2021/12/03 02:23:15;;;;;;;13.73;12.32;;;;;;;;;;5059022;28;20996;-74
2021/12/03 02:25:41;;;;;;;16.27;14.33;;;;;;;;;;5058305;28;20423;-73
2021/12/03 02:28:07;;;;;;;14.45;12.95;;;;;;;;;;5060316;28;20407;-73
2021/12/03 02:30:32;;;;;;;13.07;11.60;;;;;;;;;;5059065;28;20585;-73
2021/12/03 02:32:57;;;;;;;12.07;10.77;;;;;;;;;;5055155;28;20418;-73
2021/12/03 02:35:24;;;;;;;13.20;11.80;;;;;;;;;;5055402;28;20460;-73
2021/12/03 02:37:51;;;;;;;13.32;11.93;;;;;;;;;;5056394;28;20401;-73
2021/12/03 02:40:18;;;;;;;12.60;11.30;;;;;;;;;;5055636;28;20538;-73
2021/12/03 02:42:43;;;;;;;16.90;15.10;;;;;;;;;;5057283;28;20974;-73
2021/12/03 02:45:09;;;;;;;15.27;13.67;;;;;;;;;;5072594;28;20407;-73
2021/12/03 02:47:35;;;;;;;13.88;12.35;;;;;;;;;;5055214;28;20404;-73
2021/12/03 02:50:01;;;;;;;14.93;13.43;;;;;;;;;;5056831;28;20414;-73
2021/12/03 02:52:26;;;;;;;15.87;14.17;;;;;;;;;;5056177;28;20803;-73
2021/12/03 02:54:51;;;;;;;13.47;12.07;;;;;;;;;;5056963;28;20412;-73
2021/12/03 02:57:17;;;;;;;13.52;12.13;;;;;;;;;;5055845;28;20438;-73
2021/12/03 02:59:42;;;;;;;13.60;12.20;;;;;;;;;;5056476;28;20789;-73
2021/12/03 03:02:07;;;;;;;12.03;10.73;;;;;;;;;;5057365;28;20913;-73
2021/12/03 03:04:33;;;;;;;11.90;10.70;;;;;;;;;;5056797;28;20399;-73
2021/12/03 03:06:59;;;;;;;14.73;13.23;;;;;;;;;;5056379;28;20498;-73
2021/12/03 03:09:25;;;;;;;19.50;16.60;;;;;;;;;;5056186;28;20403;-74
2021/12/03 03:11:50;;;;;;;17.23;14.87;;;;;;;;;;5072498;28;20419;-74
2021/12/03 03:14:16;;;;;;;17.43;14.63;;;;;;;;;;5058019;28;20407;-73
2021/12/03 03:16:41;;;;;;;15.83;14.03;;;;;;;;;;5058994;28;20478;-73
2021/12/03 03:19:17;;;;;;;18.20;16.20;;;;;;;;;;5058479;28;20892;-73
2021/12/03 03:21:43;;;;;;;14.93;13.37;;;;;;;;;;5056888;28;20805;-73
2021/12/03 03:24:09;;;;;;;15.47;13.07;;;;;;;;;;5056333;28;20395;-74
2021/12/03 03:26:35;;;;;;;13.25;11.85;;;;;;;;;;5056793;28;20483;-73
2021/12/03 03:29:01;;;;;;;14.38;12.88;;;;;;;;;;5054775;28;20453;-73
2021/12/03 03:31:26;;;;;;;13.63;12.23;;;;;;;;;;5056315;28;20403;-73
2021/12/03 03:33:52;;;;;;;13.37;11.47;;;;;;;;;;5057905;28;20387;-73
2021/12/03 03:36:17;;;;;;;11.67;10.47;;;;;;;;;;5057410;28;20391;-73
2021/12/03 03:38:42;;;;;;;13.73;12.23;;;;;;;;;;5057764;28;20746;-73
2021/12/03 03:41:08;;;;;;;12.73;11.30;;;;;;;;;;5057684;28;20435;-73
2021/12/03 03:43:33;;;;;;;11.93;10.73;;;;;;;;;;5057792;28;20426;-73
2021/12/03 03:45:59;;;;;;;11.40;10.20;;;;;;;;;;5057073;28;20415;-73
2021/12/03 03:48:24;;;;;;;10.77;9.67;;;;;;;;;;5058574;28;20443;-73
2021/12/03 03:50:50;;;;;;;11.75;10.55;;;;;;;;;;5057724;28;20490;-73
2021/12/03 03:53:16;;;;;;;12.98;11.40;;;;;;;;;;5056129;28;20423;-73
2021/12/03 03:55:42;;;;;;;11.65;9.95;;;;;;;;;;5055524;28;20434;-73
2021/12/03 03:58:07;;;;;;;10.68;9.57;;;;;;;;;;5053062;28;20411;-73
2021/12/03 04:00:35;;;;;;;11.10;9.90;;;;;;;;;;5053372;28;20410;-73
2021/12/03 04:03:00;;;;;;;10.80;9.70;;;;;;;;;;5057136;28;20897;-73
2021/12/03 04:05:26;;;;;;;11.02;9.90;;;;;;;;;;5057470;28;20395;-73
2021/12/03 04:07:51;;;;;;;11.18;10.07;;;;;;;;;;5056306;28;20908;-74
2021/12/03 04:10:17;;;;;;;15.30;13.23;;;;;;;;;;5056122;28;20458;-73
2021/12/03 04:12:42;;;;;;;14.88;13.18;;;;;;;;;;5055548;28;20777;-73
2021/12/03 04:15:09;;;;;;;13.90;12.43;;;;;;;;;;5055732;28;20423;-73
2021/12/03 04:17:35;;;;;;;14.82;13.30;;;;;;;;;;5052624;28;20395;-73
2021/12/03 04:20:01;;;;;;;13.65;12.25;;;;;;;;;;5053864;28;20423;-73
2021/12/03 04:22:26;;;;;;;15.43;13.83;;;;;;;;;;5054270;28;20461;-73
2021/12/03 04:24:52;;;;;;;15.20;13.60;;;;;;;;;;5054680;28;20395;-73
2021/12/03 04:27:18;;;;;;;13.35;11.95;;;;;;;;;;5055220;28;20439;-73
2021/12/03 04:29:43;;;;;;;12.63;11.33;;;;;;;;;;5055953;28;20951;-73
2021/12/03 04:32:09;;;;;;;13.07;11.77;;;;;;;;;;5056435;28;20407;-74
2021/12/03 04:34:34;;;;;;;13.27;11.97;;;;;;;;;;5058153;28;20407;-74
2021/12/03 04:37:00;;;;;;;13.20;11.80;;;;;;;;;;5057056;28;20469;-73
2021/12/03 04:39:25;;;;;;;12.97;11.67;;;;;;;;;;5056882;28;20489;-73
2021/12/03 04:41:50;;;;;;;13.33;11.93;;;;;;;;;;5057000;28;20406;-73
2021/12/03 04:44:15;;;;;;;12.63;11.33;;;;;;;;;;5054647;28;20427;-73
2021/12/03 04:46:41;;;;;;;13.50;12.10;;;;;;;;;;5053377;28;20541;-73
2021/12/03 04:49:06;;;;;;;14.33;12.97;;;;;;;;;;5054021;28;20491;-72
2021/12/03 04:51:31;;;;;;;15.20;13.33;;;;;;;;;;5055458;28;20403;-73
2021/12/03 04:53:57;;;;;;;15.03;13.53;;;;;;;;;;5052708;28;20391;-72
2021/12/03 04:56:22;;;;;;;16.57;14.77;;;;;;;;;;5054246;28;20472;-73
2021/12/03 04:58:47;;;;;;;17.50;15.47;;;;;;;;;;5054111;28;20494;-73
2021/12/03 05:01:13;;;;;;;16.67;14.83;;;;;;;;;;5055326;28;20403;-73
2021/12/03 05:03:38;;;;;;;19.20;16.80;;;;;;;;;;5053298;28;20395;-73
2021/12/03 05:06:07;;;;;;;18.10;15.87;;;;;;;;;;5052761;28;20407;-72
2021/12/03 05:08:35;;;;;;;16.77;14.90;;;;;;;;;;5051331;28;24725;-73
2021/12/03 05:11:00;;;;;;;15.07;13.47;;;;;;;;;;5052797;28;20406;-72
2021/12/03 05:13:27;;;;;;;15.23;13.63;;;;;;;;;;5055059;28;20396;-73
2021/12/03 05:15:53;;;;;;;17.50;15.60;;;;;;;;;;5052876;28;20411;-72
2021/12/03 05:18:20;;;;;;;18.60;15.83;;;;;;;;;;5054260;28;20889;-72
2021/12/03 05:20:46;;;;;;;22.23;19.05;;;;;;;;;;5053861;28;20403;-73
2021/12/03 05:23:12;;;;;;;25.02;20.95;;;;;;;;;;5052698;28;20402;-72
2021/12/03 05:25:38;;;;;;;22.40;20.00;;;;;;;;;;5056097;28;20411;-74
2021/12/03 05:28:04;;;;;;;22.70;20.03;;;;;;;;;;5056165;28;20478;-72
2021/12/03 05:30:30;;;;;;;21.43;19.13;;;;;;;;;;5055444;28;20481;-73
2021/12/03 05:32:55;;;;;;;19.87;17.80;;;;;;;;;;5055202;28;20394;-72
2021/12/03 05:35:21;;;;;;;19.30;17.30;;;;;;;;;;5054430;28;20821;-74
2021/12/03 05:37:47;;;;;;;19.27;17.38;;;;;;;;;;5054817;28;20403;-73
2021/12/03 05:40:13;;;;;;;19.80;17.80;;;;;;;;;;5056944;28;21032;-73
2021/12/03 05:42:38;;;;;;;30.85;27.58;;;;;;;;;;5055860;28;20479;-73
2021/12/03 05:45:05;;;;;;;30.80;27.60;;;;;;;;;;5056067;28;20901;-73
2021/12/03 05:47:30;;;;;;;28.75;25.83;;;;;;;;;;5055431;28;20422;-73
2021/12/03 05:49:55;;;;;;;27.20;24.30;;;;;;;;;;5037140;28;20406;-73
2021/12/03 05:52:21;;;;;;;26.90;23.95;;;;;;;;;;5059322;28;20893;-73
2021/12/03 05:54:46;;;;;;;25.53;22.63;;;;;;;;;;5058107;28;20798;-73
2021/12/03 05:57:12;;;;;;;22.35;19.52;;;;;;;;;;5053690;28;20427;-74
2021/12/03 05:59:37;;;;;;;26.60;22.93;;;;;;;;;;5057029;28;20770;-73
2021/12/03 06:02:02;;;;;;;23.58;21.02;;;;;;;;;;5056588;28;20422;-73
2021/12/03 06:04:29;;;;;;;23.13;20.50;;;;;;;;;;5058694;28;20472;-73
2021/12/03 06:06:54;;;;;;;22.45;20.15;;;;;;;;;;5059709;28;20403;-72
2021/12/03 06:09:20;;;;;;;22.17;19.87;;;;;;;;;;5059654;28;20406;-74
2021/12/03 06:11:45;;;;;;;24.73;22.03;;;;;;;;;;5058922;28;20403;-73
2021/12/03 06:14:11;;;;;;;23.60;21.10;;;;;;;;;;5058890;28;20403;-72
2021/12/03 06:16:36;;;;;;;24.67;22.00;;;;;;;;;;5058652;28;20897;-73
2021/12/03 06:19:01;;;;;;;23.55;20.67;;;;;;;;;;5056231;28;20489;-73
2021/12/03 06:21:27;;;;;;;23.80;20.30;;;;;;;;;;5057552;28;20396;-73
2021/12/03 06:23:53;;;;;;;24.87;21.80;;;;;;;;;;5056936;28;20402;-74
2021/12/03 06:26:18;;;;;;;23.80;20.47;;;;;;;;;;5055660;28;20952;-74
2021/12/03 06:28:43;;;;;;;25.93;22.53;;;;;;;;;;5055028;28;20415;-73
2021/12/03 06:31:09;;;;;;;26.97;24.07;;;;;;;;;;5058326;28;20469;-73
2021/12/03 06:33:34;;;;;;;30.10;26.90;;;;;;;;;;5059615;28;20442;-72
2021/12/03 06:35:59;;;;;;;30.00;26.50;;;;;;;;;;5058004;28;20419;-72
2021/12/03 06:38:25;;;;;;;27.60;24.13;;;;;;;;;;5056040;28;20456;-72
2021/12/03 06:40:52;;;;;;;28.83;24.70;;;;;;;;;;5055607;28;20406;-72
2021/12/03 06:43:18;;;;;;;45.85;34.45;;;;;;;;;;5056534;28;20396;-73
2021/12/03 06:45:43;;;;;;;43.65;33.97;;;;;;;;;;5056282;28;20478;-73
2021/12/03 06:48:09;;;;;;;39.87;32.27;;;;;;;;;;5054984;28;20498;-73
2021/12/03 06:50:34;;;;;;;46.33;38.73;;;;;;;;;;5056058;28;20458;-73
2021/12/03 06:53:06;;;;;;;39.03;32.87;;;;;;;;;;5056229;28;20411;-73
2021/12/03 06:56:33;;;;;;;32.83;28.05;;;;;;;;;;5058358;28;20503;-72
2021/12/03 06:58:26;;;;;;;29.10;25.77;;;;;;;;;;5052694;28;20399;-72
2021/12/03 07:00:53;;;;;;;35.87;30.30;;;;;;;;;;5056520;28;20410;-73
2021/12/03 07:03:18;;;;;;;45.78;36.53;;;;;;;;;;5055511;28;20429;-73
2021/12/03 07:05:43;;;;;;;48.60;38.90;;;;;;;;;;5055535;28;20816;-72
2021/12/03 07:08:09;;;;;;;44.33;36.20;;;;;;;;;;5056627;28;20415;-72
2021/12/03 07:10:34;;;;;;;45.67;36.80;;;;;;;;;;5058617;28;20403;-72
2021/12/03 07:13:00;;;;;;;45.17;34.70;;;;;;;;;;5058344;28;20751;-72
2021/12/03 07:15:25;;;;;;;35.50;28.65;;;;;;;;;;5057698;28;20411;-72
2021/12/03 07:17:51;;;;;;;34.17;27.90;;;;;;;;;;5057214;28;20818;-72
2021/12/03 07:20:17;;;;;;;48.13;37.87;;;;;;;;;;5057261;28;20399;-72
2021/12/03 07:22:43;;;;;;;38.50;32.22;;;;;;;;;;5057051;28;20924;-72
2021/12/03 07:25:09;;;;;;;37.47;31.57;;;;;;;;;;5057849;28;20446;-72
2021/12/03 07:27:34;;;;;;;37.25;31.20;;;;;;;;;;5057306;28;20442;-72
2021/12/03 07:30:00;;;;;;;33.77;27.93;;;;;;;;;;5058067;28;20435;-72
2021/12/03 07:32:27;;;;;;;26.63;22.73;;;;;;;;;;5056689;28;20407;-72
2021/12/03 07:34:52;;;;;;;21.40;19.17;;;;;;;;;;5059000;28;20437;-72
2021/12/03 07:37:17;;;;;;;19.13;17.03;;;;;;;;;;5055562;28;20457;-73
2021/12/03 07:39:44;;;;;;;17.13;15.13;;;;;;;;;;5056441;28;20510;-73
2021/12/03 07:42:09;;;;;;;18.87;16.23;;;;;;;;;;5058353;28;20932;-73
2021/12/03 07:44:35;;;;;;;22.93;17.93;;;;;;;;;;5057845;28;20411;-73
2021/12/03 07:47:00;;;;;;;27.95;21.35;;;;;;;;;;5057066;28;20424;-73
2021/12/03 07:49:26;;;;;;;24.57;20.03;;;;;;;;;;5055152;28;20403;-73
2021/12/03 07:51:52;;;;;;;19.80;16.88;;;;;;;;;;5054694;28;20412;-73
2021/12/03 07:54:17;;;;;;;17.87;15.40;;;;;;;;;;5057333;28;20424;-73
2021/12/03 07:56:43;;;;;;;17.00;15.07;;;;;;;;;;5058581;28;20458;-73
2021/12/03 07:59:08;;;;;;;16.83;14.10;;;;;;;;;;5057506;28;20467;-73
2021/12/03 08:01:34;;;;;;;15.83;14.13;;;;;;;;;;5059025;28;20424;-73
2021/12/03 08:03:59;;;;;;;15.30;13.70;;;;;;;;;;5055050;28;20420;-73
2021/12/03 08:06:24;;;;;;;15.53;13.90;;;;;;;;;;5054714;28;20434;-73
2021/12/03 08:08:50;;;;;;;15.50;13.43;;;;;;;;;;5057283;28;20403;-73
2021/12/03 08:11:15;;;;;;;25.43;21.40;;;;;;;;;;5062190;28;20551;-82
2021/12/03 08:13:41;;;;;;;39.28;29.15;;;;;;;;;;5055192;28;20489;-71
2021/12/03 08:16:06;;;;;;;29.63;25.20;;;;;;;;;;5054879;28;20451;-71
2021/12/03 08:18:32;;;;;;;29.52;24.52;;;;;;;;;;5057657;28;20484;-72
2021/12/03 08:20:58;;;;;;;22.25;19.85;;;;;;;;;;5055048;28;20408;-68
2021/12/03 08:23:23;;;;;;;18.60;16.58;;;;;;;;;;5054941;28;20422;-67
2021/12/03 08:25:48;;;;;;;16.23;14.57;;;;;;;;;;5057621;28;20426;-68
2021/12/03 08:28:14;;;;;;;14.57;12.97;;;;;;;;;;5058166;28;20428;-67
2021/12/03 08:30:40;;;;;;;13.27;11.97;;;;;;;;;;5057286;28;20423;-68
2021/12/03 08:33:05;;;;;;;13.33;12.03;;;;;;;;;;5056522;28;20445;-68
2021/12/03 08:35:31;;;;;;;12.90;11.60;;;;;;;;;;5053584;28;20579;-68
2021/12/03 08:37:57;;;;;;;12.77;11.47;;;;;;;;;;5055267;28;20407;-68
2021/12/03 08:40:23;;;;;;;27.60;24.60;;;;;;;;;;5054635;28;20477;-67
2021/12/03 08:42:49;;;;;;;20.38;18.13;;;;;;;;;;5055548;28;20909;-68
2021/12/03 08:45:17;;;;;;;17.27;15.35;;;;;;;;;;5055332;28;20836;-66
2021/12/03 08:47:44;;;;;;;17.50;15.68;;;;;;;;;;5053489;28;20431;-68
2021/12/03 08:50:16;;;;;;;18.48;16.48;;;;;;;;;;5056629;28;20921;-67
2021/12/03 08:55:12;;;;;;;20.42;17.98;;;;;;;;;;5054467;28;20400;-67
2021/12/03 08:57:38;;;;;;;19.85;16.90;;;;;;;;;;5056925;28;20462;-67
2021/12/03 09:00:12;;;;;;;18.42;16.35;;;;;;;;;;5057094;28;20426;-67
2021/12/03 09:02:37;;;;;;;18.30;16.05;;;;;;;;;;5054147;28;20486;-69
2021/12/03 09:05:03;;;;;;;16.77;15.05;;;;;;;;;;5056182;28;20516;-68
2021/12/03 09:07:28;;;;;;;18.30;16.37;;;;;;;;;;5053916;28;20434;-68
2021/12/03 09:09:54;;;;;;;16.67;14.93;;;;;;;;;;5055350;28;20414;-68
2021/12/03 09:12:19;;;;;;;15.60;13.73;;;;;;;;;;5056061;28;20495;-69
2021/12/03 09:14:49;;;;;;;14.23;12.33;;;;;;;;;;5057112;28;20431;-68
2021/12/03 09:25:38;;;;;;;10.60;9.60;;;;;;;;;;5053831;28;20916;-68
2021/12/03 09:28:07;;;;;;;12.80;11.50;;;;;;;;;;5057095;28;20462;-68
2021/12/03 09:30:37;;;;;;;11.60;10.40;;;;;;;;;;5054015;28;20909;-69
2021/12/03 09:33:03;;;;;;;13.30;11.50;;;;;;;;;;5056592;28;20415;-68
2021/12/03 09:35:30;;;;;;;14.25;12.80;;;;;;;;;;5054783;28;20418;-66
2021/12/03 09:37:55;;;;;;;13.73;12.32;;;;;;;;;;5054809;28;20404;-67
2021/12/03 09:40:23;;;;;;;13.10;11.70;;;;;;;;;;5051281;28;20412;-67
2021/12/03 09:42:49;;;;;;;15.13;13.35;;;;;;;;;;5052774;28;20932;-66
2021/12/03 09:45:14;;;;;;;15.53;13.93;;;;;;;;;;5053167;28;20416;-67
2021/12/03 09:47:40;;;;;;;14.98;13.48;;;;;;;;;;5055109;28;20499;-66
2021/12/03 09:50:11;;;;;;;15.80;14.13;;;;;;;;;;5053767;28;20418;-66
2021/12/03 09:52:45;;;;;;;14.25;12.75;;;;;;;;;;5055466;28;20412;-66
2021/12/03 09:55:12;;;;;;;14.90;13.32;;;;;;;;;;5054272;28;21215;-67
2021/12/03 09:57:42;;;;;;;13.60;12.20;;;;;;;;;;5052048;28;21231;-66
2021/12/03 10:11:46;;;;;;;9.10;8.10;;;;;;;;;;4974739;28;20406;-66
2021/12/03 10:14:21;;;;;;;9.40;8.18;;;;;;;;;;5052549;28;20469;-67
2021/12/03 10:19:59;;;;;;;7.10;6.40;;;;;;;;;;5053784;28;20450;-66
2021/12/03 10:38:08;;;;;;;6.10;5.50;;;;;;;;;;5057249;28;20441;-66
2021/12/03 10:43:16;;;;;;;6.40;5.80;;;;;;;;;;5059094;28;20821;-66
2021/12/03 10:46:02;;;;;;;5.95;5.35;;;;;;;;;;5059823;28;20458;-66
2021/12/03 10:48:42;;;;;;;12.73;9.50;;;;;;;;;;5055340;28;20410;-66
2021/12/03 10:52:10;;;;;;;13.68;9.82;;;;;;;;;;5055659;28;20902;-67
2021/12/03 10:54:19;;;;;;;15.32;10.73;;;;;;;;;;5049766;28;22040;-67
2021/12/03 11:05:32;;;;;;;9.60;8.20;;;;;;;;;;5055185;28;20434;-68
2021/12/03 11:07:42;;;;;;;7.33;6.63;;;;;;;;;;5046688;28;20498;-68
2021/12/03 11:18:56;;;;;;;6.55;5.90;;;;;;;;;;5056287;28;20912;-67
2021/12/03 11:27:26;;;;;;;6.60;6.00;;;;;;;;;;5057728;28;20403;-66
2021/12/03 11:58:02;;;;;;;4.97;4.30;;;;;;;;;;5055648;28;20398;-68
2021/12/03 12:00:24;;;;;;;5.38;3.90;;;;;;;;;;5056061;28;20403;-68
2021/12/03 12:29:18;;;;;;;4.93;4.18;;;;;;;;;;5054028;28;20450;-69
2021/12/03 13:02:54;;;;;;;4.88;4.10;;;;;;;;;;5053914;28;20396;-68
2021/12/03 13:36:07;;;;;;;5.40;4.88;;;;;;;;;;5055592;28;20458;-67
2021/12/03 14:33:33;;;;;;;6.00;5.20;;;;;;;;;;5058934;28;20414;-67
2021/12/03 14:56:05;;;;;;;5.80;5.17;;;;;;;;;;5059024;28;20441;-67
2021/12/03 14:58:47;;;;;;;5.65;4.70;;;;;;;;;;5056409;28;20960;-67
2021/12/03 15:01:23;;;;;;;8.50;7.35;;;;;;;;;;5056639;28;20877;-68
2021/12/03 15:04:05;;;;;;;8.10;6.75;;;;;;;;;;5056105;28;20893;-67
2021/12/03 15:06:49;;;;;;;7.22;6.35;;;;;;;;;;5037159;28;20459;-68
2021/12/03 15:09:27;;;;;;;8.57;7.32;;;;;;;;;;5055094;28;21094;-68
2021/12/03 15:14:50;;;;;;;12.98;11.57;;;;;;;;;;5057747;28;20470;-67
2021/12/03 15:18:02;;;;;;;11.83;9.97;;;;;;;;;;5055162;28;20464;-67
2021/12/03 15:30:54;;;;;;;12.98;9.73;;;;;;;;;;5054872;28;20426;-68
2021/12/03 15:33:33;;;;;;;10.52;8.48;;;;;;;;;;5053994;28;20446;-68
2021/12/03 15:36:06;;;;;;;9.43;7.20;;;;;;;;;;5055652;28;20395;-68
2021/12/03 16:08:16;;;;;;;8.68;7.28;;;;;;;;;;5054339;28;20418;-68
2021/12/03 16:19:00;;;;;;;77.23;57.47;;;;;;;;;;5055069;28;20518;-69
2021/12/03 16:53:07;;;;;;;10.43;7.50;;;;;;;;;;5055405;28;20418;-67
2021/12/03 16:55:32;;;;;;;11.70;7.97;;;;;;;;;;5053510;28;20414;-68
2021/12/03 16:57:58;;;;;;;11.13;7.88;;;;;;;;;;5053970;28;20415;-68
2021/12/03 17:00:36;;;;;;;12.13;8.53;;;;;;;;;;5053655;28;20407;-69
2021/12/03 17:03:15;;;;;;;44.37;32.73;;;;;;;;;;5055943;28;20403;-69
2021/12/03 17:14:05;;;;;;;8.90;7.97;;;;;;;;;;5032544;28;20443;-68
2021/12/03 17:59:49;;;;;;;11.38;9.95;;;;;;;;;;5047112;28;20833;-68
2021/12/03 18:02:21;;;;;;;10.68;9.43;;;;;;;;;;5072766;28;20478;-68
2021/12/03 18:07:48;;;;;;;12.32;11.02;;;;;;;;;;5051414;28;20414;-69
2021/12/03 18:16:10;;;;;;;17.77;15.27;;;;;;;;;;5059083;28;20499;-69
2021/12/03 18:58:03;;;;;;;7.30;6.60;;;;;;;;;;5058285;28;20394;-68
2021/12/03 19:00:30;;;;;;;6.40;5.90;;;;;;;;;;5056403;28;20403;-69
2021/12/03 19:02:58;;;;;;;5.70;5.20;;;;;;;;;;5055360;28;20403;-68
2021/12/03 19:05:45;;;;;;;5.15;4.75;;;;;;;;;;5043203;28;20411;-69
2021/12/03 19:08:17;;;;;;;5.93;5.28;;;;;;;;;;5059000;28;20404;-68
2021/12/03 19:10:49;;;;;;;5.47;4.97;;;;;;;;;;5055646;28;20395;-68
2021/12/03 19:13:27;;;;;;;6.20;5.60;;;;;;;;;;5055001;28;20408;-68
2021/12/03 19:15:53;;;;;;;8.23;7.43;;;;;;;;;;5058089;28;20490;-68
2021/12/03 19:18:21;;;;;;;9.20;8.40;;;;;;;;;;5070952;28;20410;-69
2021/12/03 19:20:48;;;;;;;7.97;7.18;;;;;;;;;;5053123;28;20932;-69
2021/12/03 19:23:13;;;;;;;6.32;5.72;;;;;;;;;;5057325;28;20929;-69
2021/12/03 19:25:39;;;;;;;8.07;7.27;;;;;;;;;;5058217;28;20411;-69
2021/12/03 19:28:04;;;;;;;8.90;8.10;;;;;;;;;;5054648;28;20458;-69
2021/12/03 19:30:29;;;;;;;8.63;7.83;;;;;;;;;;5057288;28;20399;-68
2021/12/03 19:32:55;;;;;;;10.17;9.17;;;;;;;;;;5054754;28;20411;-68
2021/12/03 19:35:20;;;;;;;9.00;8.10;;;;;;;;;;5056457;28;20841;-69
2021/12/03 19:37:50;;;;;;;9.27;8.33;;;;;;;;;;5058522;28;20395;-70
2021/12/03 19:40:15;;;;;;;9.60;8.60;;;;;;;;;;5055018;28;20474;-69
2021/12/03 19:43:01;;;;;;;8.50;7.60;;;;;;;;;;5056837;28;20415;-69
2021/12/03 19:45:31;;;;;;;7.70;6.90;;;;;;;;;;5057567;28;20474;-69
2021/12/03 19:50:32;;;;;;;6.67;6.00;;;;;;;;;;5055007;28;20407;-68
2021/12/03 19:53:11;;;;;;;7.13;6.45;;;;;;;;;;5054319;28;20403;-69
2021/12/03 19:55:37;;;;;;;6.82;6.22;;;;;;;;;;5056497;28;20459;-69
2021/12/03 19:58:06;;;;;;;6.60;6.00;;;;;;;;;;5058010;28;20567;-72
2021/12/03 20:00:32;;;;;;;7.05;6.07;;;;;;;;;;5055241;28;20912;-69
2021/12/03 20:02:57;;;;;;;6.70;6.10;;;;;;;;;;5053935;28;20445;-69
2021/12/03 20:05:22;;;;;;;5.40;4.90;;;;;;;;;;5039590;28;20423;-71
2021/12/03 20:07:48;;;;;;;12.47;11.37;;;;;;;;;;5055949;28;20964;-69
2021/12/03 20:10:16;;;;;;;10.10;9.20;;;;;;;;;;5055439;28;20507;-70
2021/12/03 20:12:42;;;;;;;15.20;13.90;;;;;;;;;;5058423;28;20517;-70
2021/12/03 20:15:10;;;;;;;10.20;9.30;;;;;;;;;;5057626;28;20426;-68
2021/12/03 20:17:58;;;;;;;7.15;6.55;;;;;;;;;;5056800;28;20387;-69
2021/12/03 20:20:23;;;;;;;5.38;4.88;;;;;;;;;;5057156;28;20920;-69
2021/12/03 20:38:12;;;;;;;3.77;3.20;;;;;;;;;;5057377;28;20392;-68
2021/12/03 20:40:37;;;;;;;4.32;3.80;;;;;;;;;;5055138;28;20889;-68
2021/12/03 20:43:24;;;;;;;4.17;3.53;;;;;;;;;;5056260;28;20445;-68
2021/12/03 20:53:34;;;;;;;5.95;4.60;;;;;;;;;;5054592;28;20422;-69
2021/12/03 21:09:44;;;;;;;4.32;3.90;;;;;;;;;;5054086;28;20446;-68
2021/12/03 21:12:17;;;;;;;4.35;3.80;;;;;;;;;;5054519;28;20435;-68
2021/12/03 21:14:51;;;;;;;3.40;3.10;;;;;;;;;;5051941;28;20481;-68
2021/12/03 21:17:39;;;;;;;3.20;2.90;;;;;;;;;;5053739;28;20388;-68
2021/12/03 21:20:13;;;;;;;3.70;3.30;;;;;;;;;;5054033;28;20402;-69
2021/12/03 21:22:44;;;;;;;3.88;3.13;;;;;;;;;;5055707;28;20427;-70
2021/12/03 21:25:11;;;;;;;4.30;3.67;;;;;;;;;;5071539;28;20921;-68
2021/12/03 21:27:42;;;;;;;3.85;3.55;;;;;;;;;;5054344;28;20947;-68
2021/12/03 21:30:20;;;;;;;3.70;3.40;;;;;;;;;;5053048;28;20410;-68
2021/12/03 21:32:54;;;;;;;3.60;3.30;;;;;;;;;;5055761;28;20478;-69
2021/12/03 21:43:20;;;;;;;3.30;3.00;;;;;;;;;;5054295;28;20587;-68
2021/12/03 21:45:46;;;;;;;3.53;3.00;;;;;;;;;;5069118;28;21039;-68
2021/12/03 21:48:11;;;;;;;4.88;4.18;;;;;;;;;;5053933;28;20490;-68
2021/12/03 21:50:37;;;;;;;4.77;4.10;;;;;;;;;;5053990;28;20522;-68
2021/12/03 21:53:03;;;;;;;6.27;5.67;;;;;;;;;;5056255;28;20429;-69
2021/12/03 21:55:29;;;;;;;6.07;5.40;;;;;;;;;;5056390;28;20423;-69
2021/12/03 21:57:54;;;;;;;5.22;4.40;;;;;;;;;;5056290;28;20424;-68
2021/12/03 22:00:20;;;;;;;4.90;4.10;;;;;;;;;;5051424;28;20462;-73
2021/12/03 22:02:46;;;;;;;4.82;4.25;;;;;;;;;;5051196;28;21162;-68
2021/12/03 22:05:11;;;;;;;3.73;3.40;;;;;;;;;;5039770;28;21241;-74
2021/12/03 22:07:37;;;;;;;3.53;3.10;;;;;;;;;;5050916;28;20463;-68
2021/12/03 22:10:02;;;;;;;3.30;3.00;;;;;;;;;;5053820;28;20438;-70
2021/12/03 22:12:29;;;;;;;3.00;2.70;;;;;;;;;;5056722;28;20439;-69
2021/12/03 22:14:54;;;;;;;3.80;3.40;;;;;;;;;;5054532;28;20974;-68
2021/12/03 22:17:19;;;;;;;3.90;3.22;;;;;;;;;;5053813;28;20423;-68
2021/12/03 22:19:45;;;;;;;4.20;3.80;;;;;;;;;;5051968;28;20403;-68
2021/12/03 22:22:10;;;;;;;3.63;3.33;;;;;;;;;;5052182;28;20411;-68
2021/12/03 22:24:40;;;;;;;3.93;3.53;;;;;;;;;;5053946;28;20439;-68
2021/12/03 22:27:06;;;;;;;4.45;3.90;;;;;;;;;;5055771;28;20450;-67
2021/12/03 22:29:31;;;;;;;4.25;3.70;;;;;;;;;;5053360;28;20395;-68
2021/12/03 22:31:58;;;;;;;3.80;3.50;;;;;;;;;;5052530;28;20407;-68
2021/12/03 22:34:24;;;;;;;3.83;3.42;;;;;;;;;;5056618;28;20411;-68